createdAt,value
2018-05-14T00:01:24.471Z,13.50
2018-05-14T00:03:52.405Z,13.50
2018-05-14T00:06:20.383Z,13.40
2018-05-14T00:08:48.283Z,13.40
2018-05-14T00:11:17.013Z,13.50
2018-05-14T00:13:44.938Z,13.50
2018-05-14T00:16:12.901Z,13.40
2018-05-14T00:18:40.808Z,13.40
2018-05-14T00:21:08.768Z,13.50
2018-05-14T00:23:36.674Z,13.50
2018-05-14T00:26:04.661Z,13.50
2018-05-14T00:28:32.572Z,13.40
2018-05-14T00:31:00.545Z,13.40
2018-05-14T00:33:29.226Z,13.50
2018-05-14T00:35:57.958Z,13.50
2018-05-14T00:38:25.877Z,13.40
2018-05-14T00:40:54.611Z,13.50
2018-05-14T00:43:22.524Z,13.50
2018-05-14T00:45:51.245Z,13.50
2018-05-14T00:48:19.144Z,13.50
2018-05-14T00:50:47.133Z,13.50
2018-05-14T00:53:15.027Z,13.50
2018-05-14T00:55:43.005Z,13.50
2018-05-14T00:58:11.679Z,13.40
2018-05-14T01:00:40.466Z,13.40
2018-05-14T01:03:09.134Z,13.30
2018-05-14T01:05:37.141Z,13.40
2018-05-14T01:08:05.853Z,13.40
2018-05-14T01:10:34.587Z,13.40
2018-05-14T01:13:02.494Z,13.40
2018-05-14T01:15:30.469Z,13.40
2018-05-14T01:17:58.365Z,13.40
2018-05-14T01:20:26.330Z,13.40
2018-05-14T01:22:54.247Z,13.40
2018-05-14T01:25:22.207Z,13.40
2018-05-14T01:27:50.118Z,13.40
2018-05-14T01:30:18.074Z,13.40
2018-05-14T01:32:46.738Z,13.30
2018-05-14T01:35:14.700Z,13.30
2018-05-14T01:37:42.611Z,13.30
2018-05-14T01:40:10.518Z,13.30
2018-05-14T01:42:38.465Z,13.30
2018-05-14T01:45:06.377Z,13.40
2018-05-14T01:47:34.345Z,13.40
2018-05-14T01:50:02.277Z,13.30
2018-05-14T01:52:30.249Z,13.30
2018-05-14T01:54:58.172Z,13.30
2018-05-14T01:57:26.126Z,13.20
2018-05-14T01:59:54.035Z,13.30
2018-05-14T02:02:22.038Z,13.30
2018-05-14T02:04:50.721Z,13.30
2018-05-14T02:07:18.674Z,13.30
2018-05-14T02:09:46.596Z,13.30
2018-05-14T02:12:14.565Z,13.30
2018-05-14T02:14:42.478Z,13.30
2018-05-14T02:17:10.440Z,13.20
2018-05-14T02:19:38.361Z,13.20
2018-05-14T02:22:06.342Z,13.20
2018-05-14T02:24:34.249Z,13.20
2018-05-14T02:27:02.214Z,13.10
2018-05-14T02:29:30.878Z,13.10
2018-05-14T02:31:58.878Z,13.10
2018-05-14T02:34:26.790Z,13.10
2018-05-14T02:36:54.747Z,13.10
2018-05-14T02:39:22.656Z,13.00
2018-05-14T02:41:50.614Z,13.00
2018-05-14T02:44:18.526Z,13.00
2018-05-14T02:46:46.511Z,13.00
2018-05-14T02:49:14.486Z,12.90
2018-05-14T02:51:42.451Z,12.90
2018-05-14T02:54:10.351Z,12.90
2018-05-14T02:56:38.331Z,12.90
2018-05-14T02:59:06.242Z,12.90
2018-05-14T03:01:34.207Z,12.90
2018-05-14T03:04:02.163Z,12.90
2018-05-14T03:06:30.116Z,12.80
2018-05-14T03:08:58.038Z,12.90
2018-05-14T03:11:26.002Z,12.90
2018-05-14T03:13:53.915Z,12.90
2018-05-14T03:16:21.876Z,12.90
2018-05-14T03:18:49.789Z,12.90
2018-05-14T03:21:18.525Z,12.80
2018-05-14T03:23:46.433Z,12.80
2018-05-14T03:26:14.413Z,12.80
2018-05-14T03:28:43.126Z,12.90
2018-05-14T03:31:11.196Z,12.80
2018-05-14T03:33:39.133Z,12.90
2018-05-14T03:36:07.877Z,12.90
2018-05-14T03:38:35.784Z,12.90
2018-05-14T03:41:04.543Z,12.90
2018-05-14T03:43:32.465Z,12.90
2018-05-14T03:46:00.429Z,12.90
2018-05-14T03:48:29.123Z,13.00
2018-05-14T03:50:57.842Z,13.00
2018-05-14T03:53:25.760Z,12.90
2018-05-14T03:55:53.711Z,12.90
2018-05-14T03:58:33.303Z,12.90
2018-05-14T04:01:13.066Z,12.90
2018-05-14T04:03:52.644Z,12.90
2018-05-14T04:06:33.386Z,12.90
2018-05-14T04:09:01.277Z,12.90
2018-05-14T04:11:29.224Z,13.00
2018-05-14T04:13:58.064Z,12.90
2018-05-14T04:16:26.005Z,13.00
2018-05-14T04:18:55.560Z,13.00
2018-05-14T04:21:26.700Z,12.90
2018-05-14T04:23:58.571Z,13.00
2018-05-14T04:26:27.416Z,12.90
2018-05-14T04:28:55.364Z,12.90
2018-05-14T04:31:23.242Z,13.00
2018-05-14T04:33:51.177Z,13.00
2018-05-14T04:36:22.853Z,13.00
2018-05-14T04:38:54.235Z,13.10
2018-05-14T04:41:25.168Z,13.20
2018-05-14T04:43:57.472Z,13.10
2018-05-14T04:46:29.685Z,13.20
2018-05-14T04:49:02.076Z,13.30
2018-05-14T04:51:33.322Z,13.30
2018-05-14T04:54:03.280Z,13.40
2018-05-14T04:56:33.277Z,13.40
2018-05-14T04:59:04.003Z,13.70
2018-05-14T05:01:32.689Z,13.70
2018-05-14T05:04:03.966Z,13.70
2018-05-14T05:06:37.410Z,13.80
2018-05-14T05:09:10.813Z,13.80
2018-05-14T05:11:42.219Z,13.80
2018-05-14T05:14:13.639Z,13.80
2018-05-14T05:16:45.006Z,13.80
2018-05-14T05:19:16.986Z,13.80
2018-05-14T05:21:45.109Z,13.90
2018-05-14T05:24:13.046Z,14.00
2018-05-14T05:26:40.941Z,14.20
2018-05-14T05:29:08.892Z,14.30
2018-05-14T05:31:36.783Z,14.40
2018-05-14T05:34:04.762Z,14.40
2018-05-14T05:36:32.665Z,14.50
2018-05-14T05:39:00.621Z,14.70
2018-05-14T05:41:28.517Z,14.90
2018-05-14T05:43:56.474Z,15.40
2018-05-14T05:46:24.350Z,15.70
2018-05-14T05:48:53.060Z,15.90
2018-05-14T05:51:20.940Z,15.90
2018-05-14T05:53:48.875Z,15.80
2018-05-14T05:56:17.523Z,15.40
2018-05-14T05:58:45.458Z,15.40
2018-05-14T06:01:13.395Z,15.10
2018-05-14T06:03:42.209Z,15.10
2018-05-14T06:06:10.093Z,15.10
2018-05-14T06:08:38.023Z,15.20
2018-05-14T06:11:06.681Z,15.40
2018-05-14T06:13:34.635Z,15.40
2018-05-14T06:16:02.543Z,15.90
2018-05-14T06:18:30.480Z,16.00
2018-05-14T06:20:58.727Z,16.00
2018-05-14T06:23:26.669Z,15.90
2018-05-14T06:25:55.327Z,15.70
2018-05-14T06:28:23.283Z,15.70
2018-05-14T06:30:51.178Z,15.50
2018-05-14T06:33:19.129Z,15.60
2018-05-14T06:35:47.011Z,15.70
2018-05-14T06:38:14.965Z,15.90
2018-05-14T06:40:42.848Z,16.10
2018-05-14T06:43:10.796Z,16.10
2018-05-14T06:45:38.684Z,16.20
2018-05-14T06:48:06.641Z,16.30
2018-05-14T06:50:34.567Z,16.50
2018-05-14T06:53:02.574Z,16.80
2018-05-14T06:55:31.258Z,17.50
2018-05-14T06:57:59.193Z,17.50
2018-05-14T07:00:27.851Z,18.00
2018-05-14T07:02:55.793Z,18.00
2018-05-14T07:05:23.683Z,18.50
2018-05-14T07:07:52.616Z,18.80
2018-05-14T07:10:20.503Z,18.40
2018-05-14T07:12:48.444Z,18.40
2018-05-14T07:15:17.094Z,18.00
2018-05-14T07:17:45.033Z,17.90
2018-05-14T07:20:12.904Z,17.80
2018-05-14T07:22:40.884Z,17.80
2018-05-14T07:25:08.787Z,17.90
2018-05-14T07:27:37.448Z,18.10
2018-05-14T07:30:05.504Z,18.10
2018-05-14T07:32:33.382Z,18.70
2018-05-14T07:35:01.372Z,19.50
2018-05-14T07:37:29.275Z,20.20
2018-05-14T07:39:57.993Z,21.40
2018-05-14T07:42:25.905Z,21.40
2018-05-14T07:44:53.848Z,21.80
2018-05-14T07:47:21.738Z,22.30
2018-05-14T07:49:49.687Z,22.50
2018-05-14T07:52:17.573Z,22.30
2018-05-14T07:54:45.516Z,22.50
2018-05-14T07:57:13.406Z,23.00
2018-05-14T07:59:41.355Z,23.80
2018-05-14T08:02:09.245Z,25.10
2018-05-14T08:04:37.224Z,25.80
2018-05-14T08:07:05.112Z,25.40
2018-05-14T08:09:33.820Z,25.50
2018-05-14T08:12:01.736Z,25.40
2018-05-14T08:14:29.670Z,25.90
2018-05-14T08:16:57.550Z,26.30
2018-05-14T08:19:25.510Z,26.70
2018-05-14T08:21:53.411Z,26.40
2018-05-14T08:24:21.371Z,27.10
2018-05-14T08:26:49.261Z,27.40
2018-05-14T08:29:17.216Z,26.20
2018-05-14T08:31:45.101Z,27.20
2018-05-14T08:34:13.060Z,25.80
2018-05-14T08:36:40.960Z,26.30
2018-05-14T08:39:09.688Z,26.40
2018-05-14T08:41:37.613Z,26.40
2018-05-14T08:44:05.567Z,26.40
2018-05-14T08:46:33.460Z,27.20
2018-05-14T08:49:02.165Z,27.90
2018-05-14T08:51:30.056Z,27.90
2018-05-14T08:53:58.033Z,27.40
2018-05-14T08:56:25.922Z,28.10
2018-05-14T08:58:53.873Z,28.50
2018-05-14T09:01:21.767Z,28.20
2018-05-14T09:03:49.710Z,27.30
2018-05-14T09:06:17.937Z,28.40
2018-05-14T09:08:46.061Z,29.20
2018-05-14T09:11:13.954Z,28.80
2018-05-14T09:13:41.898Z,28.90
2018-05-14T09:16:09.775Z,27.20
2018-05-14T09:18:37.745Z,27.30
2018-05-14T09:21:05.705Z,27.80
2018-05-14T09:23:33.639Z,28.20
2018-05-14T09:26:04.336Z,29.10
2018-05-14T09:28:32.444Z,29.00
2018-05-14T09:31:01.121Z,29.80
2018-05-14T09:33:37.351Z,29.80
2018-05-14T09:36:08.317Z,30.40
2018-05-14T09:38:36.494Z,30.10
2018-05-14T09:41:06.118Z,30.60
2018-05-14T09:43:34.258Z,29.90
2018-05-14T09:46:02.193Z,30.30
2018-05-14T09:48:30.134Z,29.80
2018-05-14T09:50:58.779Z,30.50
2018-05-14T09:53:26.709Z,30.50
2018-05-14T09:55:54.603Z,30.00
2018-05-14T09:58:22.558Z,30.10
2018-05-14T10:00:50.432Z,29.70
2018-05-14T10:03:18.380Z,29.60
2018-05-14T10:05:46.289Z,30.00
2018-05-14T10:08:14.178Z,30.30
2018-05-14T10:10:42.113Z,30.20
2018-05-14T10:13:09.993Z,30.60
2018-05-14T10:15:37.930Z,30.40
2018-05-14T10:18:05.808Z,29.80
2018-05-14T10:20:33.798Z,29.70
2018-05-14T10:23:01.681Z,29.60
2018-05-14T10:25:29.613Z,29.20
2018-05-14T10:27:57.489Z,29.00
2018-05-14T10:30:25.417Z,28.70
2018-05-14T10:32:54.063Z,28.80
2018-05-14T10:35:22.005Z,28.70
2018-05-14T10:37:49.879Z,29.20
2018-05-14T10:40:17.824Z,29.80
2018-05-14T10:42:45.718Z,30.10
2018-05-14T10:45:13.658Z,29.60
2018-05-14T10:47:42.308Z,28.20
2018-05-14T10:50:10.257Z,28.20
2018-05-14T10:52:38.123Z,28.50
2018-05-14T10:55:06.285Z,28.20
2018-05-14T10:57:34.148Z,27.60
2018-05-14T11:00:02.133Z,27.40
2018-05-14T11:02:30.031Z,27.50
2018-05-14T11:04:57.977Z,27.80
2018-05-14T11:07:25.861Z,28.70
2018-05-14T11:09:53.792Z,28.50
2018-05-14T11:12:21.724Z,28.40
2018-05-14T11:14:50.450Z,28.90
2018-05-14T11:17:18.331Z,28.90
2018-05-14T11:19:46.305Z,29.60
2018-05-14T11:22:14.204Z,29.60
2018-05-14T11:24:42.146Z,29.20
2018-05-14T11:27:10.057Z,28.70
2018-05-14T11:29:37.992Z,29.30
2018-05-14T11:32:05.865Z,29.60
2018-05-14T11:34:34.037Z,29.80
2018-05-14T11:37:01.976Z,29.70
2018-05-14T11:39:29.939Z,28.60
2018-05-14T11:41:57.852Z,28.10
2018-05-14T11:44:25.783Z,28.00
2018-05-14T11:46:53.655Z,27.90
2018-05-14T11:49:21.694Z,28.20
2018-05-14T11:51:50.353Z,28.60
2018-05-14T11:54:18.284Z,28.60
2018-05-14T11:56:47.523Z,29.10
2018-05-14T11:59:15.578Z,29.50
2018-05-14T12:01:43.465Z,29.10
2018-05-14T12:04:11.425Z,29.60
2018-05-14T12:06:39.344Z,28.80
2018-05-14T12:09:07.283Z,28.30
2018-05-14T12:11:35.161Z,27.30
2018-05-14T12:14:03.128Z,27.20
2018-05-14T12:16:31.028Z,26.70
2018-05-14T12:18:58.961Z,26.30
2018-05-14T12:21:27.001Z,26.00
2018-05-14T12:23:54.933Z,26.30
2018-05-14T12:26:23.624Z,27.30
2018-05-14T12:28:51.595Z,27.20
2018-05-14T12:31:19.490Z,27.10
2018-05-14T12:33:47.369Z,27.70
2018-05-14T12:36:15.302Z,28.20
2018-05-14T12:38:43.181Z,27.20
2018-05-14T12:41:11.149Z,27.70
2018-05-14T12:43:39.249Z,28.00
2018-05-14T12:46:07.266Z,27.80
2018-05-14T12:48:35.148Z,28.20
2018-05-14T12:51:03.083Z,28.20
2018-05-14T12:53:30.972Z,28.30
2018-05-14T12:55:59.690Z,28.80
2018-05-14T12:58:27.603Z,28.70
2018-05-14T13:00:56.177Z,29.10
2018-05-14T13:03:24.066Z,29.00
2018-05-14T13:05:52.009Z,28.10
2018-05-14T13:08:19.900Z,28.20
2018-05-14T13:10:47.865Z,28.40
2018-05-14T13:13:15.769Z,28.40
2018-05-14T13:15:44.469Z,28.20
2018-05-14T13:18:12.361Z,28.20
2018-05-14T13:20:40.324Z,28.20
2018-05-14T13:23:08.253Z,27.80
2018-05-14T13:25:36.986Z,28.00
2018-05-14T13:28:04.919Z,28.00
2018-05-14T13:30:32.880Z,28.00
2018-05-14T13:33:01.538Z,27.60
2018-05-14T13:35:29.478Z,27.60
2018-05-14T13:37:57.431Z,27.70
2018-05-14T13:40:26.155Z,26.40
2018-05-14T13:42:54.062Z,26.30
2018-05-14T13:45:23.305Z,26.10
2018-05-14T13:47:51.204Z,26.10
2018-05-14T13:50:19.162Z,26.30
2018-05-14T13:52:47.053Z,26.40
2018-05-14T13:55:14.987Z,26.70
2018-05-14T13:57:42.877Z,26.50
2018-05-14T14:00:10.901Z,25.60
2018-05-14T14:02:38.789Z,25.20
2018-05-14T14:05:06.733Z,25.10
2018-05-14T14:07:35.387Z,25.40
2018-05-14T14:10:03.359Z,25.40
2018-05-14T14:12:31.244Z,25.80
2018-05-14T14:14:59.602Z,26.10
2018-05-14T14:17:27.512Z,26.60
2018-05-14T14:19:55.472Z,26.60
2018-05-14T14:22:24.133Z,26.70
2018-05-14T14:24:52.097Z,26.60
2018-05-14T14:27:19.998Z,26.50
2018-05-14T14:29:48.796Z,26.20
2018-05-14T14:32:17.440Z,26.00
2018-05-14T14:34:45.400Z,26.00
2018-05-14T14:37:13.385Z,26.20
2018-05-14T14:39:41.291Z,26.40
2018-05-14T14:42:09.218Z,26.60
2018-05-14T14:44:37.185Z,26.80
2018-05-14T14:47:05.095Z,26.70
2018-05-14T14:49:33.823Z,25.80
2018-05-14T14:52:01.705Z,25.80
2018-05-14T14:54:29.641Z,25.40
2018-05-14T14:56:57.532Z,25.20
2018-05-14T14:59:25.479Z,24.80
2018-05-14T15:01:53.513Z,24.50
2018-05-14T15:04:21.395Z,23.90
2018-05-14T15:06:50.184Z,24.20
2018-05-14T15:09:18.860Z,24.60
2018-05-14T15:11:47.625Z,24.80
2018-05-14T15:14:15.523Z,24.70
2018-05-14T15:16:46.079Z,24.20
2018-05-14T15:19:13.971Z,24.20
2018-05-14T15:21:41.969Z,23.90
2018-05-14T15:24:09.846Z,23.80
2018-05-14T15:26:37.790Z,24.00
2018-05-14T15:29:05.673Z,24.00
2018-05-14T15:31:33.618Z,24.10
2018-05-14T15:34:01.487Z,24.40
2018-05-14T15:36:29.469Z,24.70
2018-05-14T15:38:57.372Z,25.00
2018-05-14T15:41:26.227Z,25.40
2018-05-14T15:43:54.108Z,25.40
2018-05-14T15:46:22.894Z,25.40
2018-05-14T15:48:51.761Z,25.40
2018-05-14T15:51:20.752Z,25.30
2018-05-14T15:53:50.734Z,24.80
2018-05-14T15:56:19.457Z,24.60
2018-05-14T15:58:47.373Z,24.60
2018-05-14T16:01:15.341Z,24.50
2018-05-14T16:03:43.220Z,24.50
2018-05-14T16:06:12.341Z,24.70
2018-05-14T16:08:40.212Z,24.70
2018-05-14T16:11:08.172Z,24.80
2018-05-14T16:13:36.053Z,24.80
2018-05-14T16:16:04.068Z,24.80
2018-05-14T16:18:32.007Z,24.60
2018-05-14T16:20:59.999Z,24.40
2018-05-14T16:23:27.874Z,24.20
2018-05-14T16:25:55.802Z,24.20
2018-05-14T16:28:24.541Z,24.10
2018-05-14T16:30:52.532Z,24.10
2018-05-14T16:33:20.539Z,24.10
2018-05-14T16:35:49.219Z,24.30
2018-05-14T16:38:21.489Z,24.30
2018-05-14T16:40:49.639Z,24.40
2018-05-14T16:43:18.320Z,24.40
2018-05-14T16:45:46.295Z,24.40
2018-05-14T16:48:14.948Z,24.10
2018-05-14T16:50:42.927Z,24.10
2018-05-14T16:53:10.841Z,24.00
2018-05-14T16:55:38.812Z,23.90
2018-05-14T16:58:06.704Z,23.90
2018-05-14T17:00:34.647Z,23.90
2018-05-14T17:03:02.545Z,24.00
2018-05-14T17:05:30.749Z,24.00
2018-05-14T17:07:58.651Z,24.10
2018-05-14T17:10:27.427Z,24.20
2018-05-14T17:12:55.301Z,24.10
2018-05-14T17:15:24.019Z,24.10
2018-05-14T17:17:51.933Z,24.00
2018-05-14T17:20:19.872Z,24.00
2018-05-14T17:22:47.749Z,24.00
2018-05-14T17:25:15.691Z,23.90
2018-05-14T17:27:43.578Z,23.90
2018-05-14T17:30:11.567Z,23.80
2018-05-14T17:32:39.462Z,23.80
2018-05-14T17:35:08.166Z,23.80
2018-05-14T17:37:36.831Z,23.70
2018-05-14T17:40:05.245Z,23.70
2018-05-14T17:42:33.220Z,23.70
2018-05-14T17:45:01.106Z,23.60
2018-05-14T17:47:29.341Z,23.40
2018-05-14T17:49:57.988Z,23.00
2018-05-14T17:52:27.236Z,23.00
2018-05-14T17:54:56.187Z,22.70
2018-05-14T17:57:24.124Z,22.70
2018-05-14T17:59:52.016Z,22.60
2018-05-14T18:02:19.974Z,22.50
2018-05-14T18:04:47.852Z,22.30
2018-05-14T18:07:15.795Z,22.30
2018-05-14T18:09:43.678Z,22.20
2018-05-14T18:12:11.637Z,22.10
2018-05-14T18:14:39.522Z,22.10
2018-05-14T18:17:08.500Z,21.80
2018-05-14T18:22:41.461Z,21.70
2018-05-14T18:28:17.325Z,21.30
2018-05-14T18:30:47.017Z,21.10
2018-05-14T18:33:14.979Z,20.90
2018-05-14T18:35:44.748Z,20.60
2018-05-14T18:38:13.401Z,20.30
2018-05-14T18:40:41.346Z,20.20
2018-05-14T18:43:09.244Z,20.10
2018-05-14T18:45:37.238Z,19.90
2018-05-14T18:48:05.317Z,19.70
2018-05-14T18:50:33.991Z,19.30
2018-05-14T18:53:01.965Z,19.30
2018-05-14T18:55:31.527Z,19.10
2018-05-14T18:58:00.730Z,19.00
2018-05-14T19:00:30.963Z,18.70
2018-05-14T19:02:59.024Z,18.60
2018-05-14T19:05:26.989Z,18.50
2018-05-14T19:07:54.981Z,18.30
2018-05-14T19:10:28.422Z,18.20
2018-05-14T19:12:57.147Z,17.90
2018-05-14T19:15:30.656Z,17.90
2018-05-14T19:18:02.183Z,17.70
2018-05-14T19:20:30.105Z,17.50
2018-05-14T19:23:03.670Z,17.40
2018-05-14T19:25:31.560Z,17.30
2018-05-14T19:28:05.850Z,17.10
2018-05-14T19:30:34.205Z,17.00
2018-05-14T19:33:03.966Z,16.80
2018-05-14T19:35:37.563Z,16.70
2018-05-14T19:38:05.509Z,16.60
2018-05-14T19:40:39.029Z,16.50
2018-05-14T19:43:07.965Z,16.30
2018-05-14T19:45:35.863Z,16.30
2018-05-14T19:48:03.911Z,16.10
2018-05-14T19:50:32.623Z,15.90
2018-05-14T19:53:01.706Z,15.90
2018-05-14T19:55:30.375Z,15.80
2018-05-14T19:57:58.385Z,15.70
2018-05-14T20:00:26.307Z,15.60
2018-05-14T20:02:54.261Z,15.50
2018-05-14T20:05:23.985Z,15.40
2018-05-14T20:07:52.160Z,15.40
2018-05-14T20:10:22.575Z,15.30
2018-05-14T20:12:51.896Z,15.20
2018-05-14T20:15:19.925Z,15.10
2018-05-14T20:17:47.861Z,15.10
2018-05-14T20:20:16.561Z,14.90
2018-05-14T20:22:44.521Z,14.90
2018-05-14T20:25:13.273Z,14.80
2018-05-14T20:27:41.226Z,14.80
2018-05-14T20:30:09.160Z,14.70
2018-05-14T20:32:37.108Z,14.70
2018-05-14T20:35:05.831Z,14.50
2018-05-14T20:37:34.471Z,14.50
2018-05-14T20:40:02.427Z,14.40
2018-05-14T20:42:30.371Z,14.40
2018-05-14T20:44:58.641Z,14.30
2018-05-14T20:47:26.590Z,14.30
2018-05-14T20:49:54.471Z,14.20
2018-05-14T20:52:22.419Z,14.20
2018-05-14T20:54:51.074Z,14.00
2018-05-14T20:57:19.030Z,14.00
2018-05-14T20:59:46.949Z,14.00
2018-05-14T21:02:14.909Z,13.90
2018-05-14T21:04:43.572Z,13.80
2018-05-14T21:07:11.768Z,13.80
2018-05-14T21:09:40.570Z,13.70
2018-05-14T21:12:08.540Z,13.70
2018-05-14T21:14:36.508Z,13.60
2018-05-14T21:17:05.246Z,13.50
2018-05-14T21:19:33.132Z,13.50
2018-05-14T21:22:01.066Z,13.50
2018-05-14T21:24:28.972Z,13.40
2018-05-14T21:26:56.946Z,13.30
2018-05-14T21:29:24.848Z,13.20
2018-05-14T21:31:52.803Z,13.20
2018-05-14T21:34:21.463Z,13.00
2018-05-14T21:36:49.358Z,13.00
2018-05-14T21:39:18.071Z,12.90
2018-05-14T21:41:45.977Z,12.90
2018-05-14T21:44:13.911Z,12.90
2018-05-14T21:46:42.961Z,12.80
2018-05-14T21:49:10.907Z,12.70
2018-05-14T21:51:38.790Z,12.70
2018-05-14T21:54:06.739Z,12.60
2018-05-14T21:56:35.598Z,12.60
2018-05-14T21:59:03.689Z,12.50
2018-05-14T22:01:31.591Z,12.50
2018-05-14T22:04:00.979Z,12.40
2018-05-14T22:06:29.050Z,12.30
2018-05-14T22:08:57.005Z,12.30
2018-05-14T22:11:24.918Z,12.20
2018-05-14T22:13:52.869Z,12.20
2018-05-14T22:16:20.999Z,12.10
2018-05-14T22:18:48.950Z,12.10
2018-05-14T22:21:17.633Z,12.00
2018-05-14T22:23:46.346Z,11.90
2018-05-14T22:26:14.243Z,11.90
2018-05-14T22:28:42.316Z,11.90
2018-05-14T22:31:10.256Z,11.90
2018-05-14T22:33:38.224Z,11.80
2018-05-14T22:36:06.117Z,11.80
2018-05-14T22:38:34.115Z,11.70
2018-05-14T22:41:02.069Z,11.60
2018-05-14T22:43:30.025Z,11.60
2018-05-14T22:45:57.989Z,11.50
2018-05-14T22:48:25.919Z,11.50
2018-05-14T22:50:54.580Z,11.40
2018-05-14T22:53:23.287Z,11.30
2018-05-14T22:55:51.940Z,11.20
2018-05-14T22:58:20.388Z,11.20
2018-05-14T23:00:49.673Z,11.10
2018-05-14T23:03:18.407Z,11.00
2018-05-14T23:05:46.401Z,11.00
2018-05-14T23:08:14.401Z,11.00
2018-05-14T23:10:45.900Z,10.90
2018-05-14T23:13:13.846Z,10.90
2018-05-14T23:15:41.756Z,10.90
2018-05-14T23:18:09.687Z,10.80
2018-05-14T23:20:37.574Z,10.70
2018-05-14T23:23:05.617Z,10.70
2018-05-14T23:25:33.557Z,10.60
2018-05-14T23:28:02.277Z,10.40
2018-05-14T23:30:30.224Z,10.40
2018-05-14T23:33:00.243Z,10.40
2018-05-14T23:35:28.893Z,10.40
2018-05-14T23:37:56.964Z,10.40
2018-05-14T23:40:25.017Z,10.40
2018-05-14T23:42:52.959Z,10.40
2018-05-14T23:45:20.887Z,10.30
2018-05-14T23:47:48.839Z,10.30
2018-05-14T23:50:16.709Z,10.30
2018-05-14T23:52:44.641Z,10.20
2018-05-14T23:55:12.528Z,10.20
2018-05-14T23:57:43.857Z,10.10
